Time;durP1;ratioP1;P1;durP2;ratioP2;P2;SDS_P1;SDS_P2;PMS_P1;PMS_P2;Temp;Humidity;BMP_temperature;BMP_pressure;BME280_temperature;BME280_humidity;BME280_pressure;Samples;Min_cycle;Max_cycle;Signal;HPM_P1;HPM_P2
2022/04/27 00:01:51;;;;;;;9.23;5.03;;;18.30;94.50;;;;;;6307569;22;20011;-73
2022/04/27 00:04:18;;;;;;;13.00;5.57;;;18.30;94.50;;;;;;6337130;22;20352;-73
2022/04/27 00:06:45;;;;;;;10.85;5.68;;;18.30;94.60;;;;;;6309636;22;20369;-73
2022/04/27 00:09:12;;;;;;;7.93;5.13;;;18.30;94.60;;;;;;6309916;22;20099;-73
2022/04/27 00:11:40;;;;;;;10.52;6.03;;;18.30;94.60;;;;;;6337369;22;20006;-73
2022/04/27 00:14:07;;;;;;;11.50;5.22;;;18.30;94.60;;;;;;6337351;22;20006;-73
2022/04/27 00:16:34;;;;;;;14.63;6.90;;;18.30;94.70;;;;;;6337149;22;20009;-74
2022/04/27 00:19:02;;;;;;;10.13;5.80;;;18.30;94.80;;;;;;6284230;22;20007;-73
2022/04/27 00:21:29;;;;;;;12.32;6.20;;;18.30;94.70;;;;;;6258563;22;20006;-73
2022/04/27 00:23:56;;;;;;;10.75;5.60;;;18.40;94.60;;;;;;6337154;22;20078;-74
2022/04/27 00:26:23;;;;;;;14.50;5.82;;;18.30;94.60;;;;;;6336118;22;20007;-73
2022/04/27 00:28:50;;;;;;;18.00;6.50;;;18.30;94.60;;;;;;6309144;22;19995;-73
2022/04/27 00:31:18;;;;;;;11.25;5.93;;;18.40;94.60;;;;;;6309532;22;20002;-73
2022/04/27 00:33:45;;;;;;;16.48;6.85;;;18.40;94.70;;;;;;6336775;22;20460;-73
2022/04/27 00:36:13;;;;;;;19.88;7.72;;;18.30;95.00;;;;;;6336581;22;20325;-74
2022/04/27 00:38:40;;;;;;;18.23;7.60;;;18.30;95.20;;;;;;6336825;22;20018;-73
2022/04/27 00:41:07;;;;;;;15.27;7.97;;;18.30;95.50;;;;;;6336994;22;19998;-73
2022/04/27 00:43:41;;;;;;;16.20;8.23;;;18.30;95.80;;;;;;6309719;22;20006;-73
2022/04/27 00:46:12;;;;;;;14.95;8.10;;;18.30;95.90;;;;;;6337386;22;20087;-73
2022/04/27 00:48:42;;;;;;;;;;;18.30;96.00;;;;;;6337326;22;19999;-73
2022/04/27 00:51:14;;;;;;;16.00;8.38;;;18.30;96.20;;;;;;6336868;22;19948;-73
2022/04/27 00:53:41;;;;;;;18.67;9.05;;;18.30;96.30;;;;;;6336557;22;20005;-72
2022/04/27 00:56:08;;;;;;;26.13;10.55;;;18.20;96.40;;;;;;6336882;22;20070;-72
2022/04/27 00:58:36;;;;;;;24.10;9.73;;;18.20;96.60;;;;;;6309716;22;20052;-71
2022/04/27 01:01:03;;;;;;;28.13;11.05;;;18.20;96.70;;;;;;6336058;22;20003;-71
2022/04/27 01:03:30;;;;;;;25.45;10.48;;;18.30;96.80;;;;;;6309721;22;20002;-72
2022/04/27 01:05:57;;;;;;;24.23;10.73;;;18.20;96.80;;;;;;6336747;22;20329;-72
2022/04/27 01:08:24;;;;;;;24.17;9.73;;;18.20;96.90;;;;;;6309694;22;19998;-72
2022/04/27 01:10:52;;;;;;;22.90;9.43;;;18.20;97.00;;;;;;6337012;22;20003;-72
2022/04/27 01:13:19;;;;;;;22.52;9.23;;;18.20;97.10;;;;;;6258185;22;20003;-72
2022/04/27 01:15:46;;;;;;;17.38;8.40;;;18.30;97.20;;;;;;6336458;22;20425;-72
2022/04/27 01:18:15;;;;;;;21.80;9.98;;;18.30;97.20;;;;;;6309231;22;19995;-72
2022/04/27 01:20:44;;;;;;;20.70;9.60;;;18.30;97.20;;;;;;6335549;22;19998;-73
2022/04/27 01:23:14;;;;;;;16.88;9.35;;;18.30;97.30;;;;;;6337023;22;20074;-73
2022/04/27 01:25:54;;;;;;;23.80;9.80;;;18.30;97.30;;;;;;6309347;22;20034;-72
2022/04/27 01:28:24;;;;;;;19.23;8.35;;;18.30;97.30;;;;;;6309966;22;20056;-73
2022/04/27 01:31:02;;;;;;;18.40;8.20;;;18.30;97.40;;;;;;6283991;22;19999;-73
2022/04/27 01:33:34;;;;;;;21.77;8.50;;;18.40;97.40;;;;;;6309378;22;20002;-73
2022/04/27 01:36:02;;;;;;;22.92;7.93;;;18.40;97.40;;;;;;6310766;22;20333;-73
2022/04/27 01:38:34;;;;;;;20.85;7.25;;;18.40;97.50;;;;;;6309208;22;20018;-73
2022/04/27 01:41:02;;;;;;;18.08;7.43;;;18.50;97.50;;;;;;6336439;22;20117;-73
2022/04/27 01:43:30;;;;;;;12.60;6.40;;;18.40;97.50;;;;;;6309658;22;20251;-73
2022/04/27 01:45:57;;;;;;;15.13;6.95;;;18.40;97.50;;;;;;6336423;22;20002;-73
2022/04/27 01:48:24;;;;;;;14.68;5.85;;;18.40;97.50;;;;;;6309533;22;19995;-73
2022/04/27 01:50:51;;;;;;;13.98;6.43;;;18.40;97.60;;;;;;6336532;22;20059;-73
2022/04/27 01:56:04;;;;;;;20.08;7.93;;;18.50;97.60;;;;;;6336428;22;20025;-73
2022/04/27 01:58:32;;;;;;;19.02;7.72;;;18.50;97.60;;;;;;6336340;22;20422;-73
2022/04/27 02:01:00;;;;;;;19.77;7.28;;;18.50;97.70;;;;;;6336305;22;20028;-73
2022/04/27 02:03:27;;;;;;;21.10;7.85;;;18.50;97.70;;;;;;6283496;22;20072;-73
2022/04/27 02:05:55;;;;;;;21.52;8.23;;;18.50;97.70;;;;;;6336386;22;20082;-73
2022/04/27 02:08:22;;;;;;;18.13;7.88;;;18.50;97.70;;;;;;6336339;22;20459;-73
2022/04/27 02:10:49;;;;;;;17.40;7.50;;;18.60;97.80;;;;;;6283175;22;20082;-74
2022/04/27 02:13:16;;;;;;;18.33;8.07;;;18.50;97.70;;;;;;6336448;22;20045;-73
2022/04/27 02:15:44;;;;;;;20.23;8.15;;;18.50;97.70;;;;;;6336751;22;20002;-74
2022/04/27 02:18:11;;;;;;;18.83;7.35;;;18.50;97.70;;;;;;6336277;22;20006;-73
2022/04/27 02:20:38;;;;;;;19.80;7.55;;;18.40;97.70;;;;;;6336460;22;20007;-73
2022/04/27 02:23:05;;;;;;;17.58;7.13;;;18.50;97.80;;;;;;6283309;22;19998;-74
2022/04/27 02:25:33;;;;;;;15.50;6.53;;;18.50;97.80;;;;;;6308247;22;19999;-74
2022/04/27 02:28:00;;;;;;;14.75;7.22;;;18.50;97.80;;;;;;6336411;22;20002;-74
2022/04/27 02:30:27;;;;;;;15.60;6.97;;;18.50;97.80;;;;;;6308589;22;20074;-73
2022/04/27 02:32:54;;;;;;;15.18;7.05;;;18.60;97.90;;;;;;6335755;22;20057;-73
2022/04/27 02:35:21;;;;;;;18.33;7.40;;;18.60;97.90;;;;;;6335983;22;20007;-73
2022/04/27 02:37:48;;;;;;;16.67;7.03;;;18.60;97.90;;;;;;6335956;22;20011;-72
2022/04/27 02:40:16;;;;;;;19.77;7.13;;;18.60;97.90;;;;;;6308450;22;20336;-73
2022/04/27 02:42:43;;;;;;;24.65;7.07;;;18.60;97.90;;;;;;6308496;22;20421;-72
2022/04/27 02:45:10;;;;;;;17.77;6.68;;;18.60;97.90;;;;;;6335603;22;20078;-73
2022/04/27 02:47:38;;;;;;;18.10;7.38;;;18.70;98.00;;;;;;6336612;22;20011;-73
2022/04/27 02:52:50;;;;;;;46.60;17.00;;;18.70;98.00;;;;;;6336181;22;20061;-72
2022/04/27 02:55:17;;;;;;;25.00;10.57;;;18.70;98.00;;;;;;6282650;22;20028;-72
2022/04/27 02:57:45;;;;;;;24.80;10.13;;;18.70;98.00;;;;;;6282566;22;20334;-73
2022/04/27 03:00:12;;;;;;;36.80;11.50;;;18.70;98.00;;;;;;6335151;22;20432;-73
2022/04/27 03:02:40;;;;;;;28.00;9.25;;;18.70;98.00;;;;;;6308097;22;20006;-73
2022/04/27 03:05:07;;;;;;;27.85;10.27;;;18.60;97.90;;;;;;6308282;22;20007;-73
2022/04/27 03:07:35;;;;;;;23.40;8.38;;;18.60;98.00;;;;;;6335524;22;20006;-73
2022/04/27 03:10:02;;;;;;;18.45;7.53;;;18.70;98.00;;;;;;6335229;22;20006;-73
2022/04/27 03:12:29;;;;;;;17.50;6.60;;;18.70;98.00;;;;;;6308384;22;19998;-73
2022/04/27 03:14:56;;;;;;;16.98;6.00;;;18.70;98.00;;;;;;6308213;22;20018;-73
2022/04/27 03:17:24;;;;;;;12.63;5.75;;;18.70;98.00;;;;;;6335421;22;20006;-73
2022/04/27 03:19:51;;;;;;;10.88;6.20;;;18.70;98.00;;;;;;6307469;22;20305;-73
2022/04/27 03:22:18;;;;;;;13.77;6.05;;;18.70;98.00;;;;;;6308310;22;20081;-73
2022/04/27 03:24:45;;;;;;;12.18;6.45;;;18.80;98.10;;;;;;6281919;22;20052;-73
2022/04/27 03:27:12;;;;;;;19.45;7.32;;;18.70;98.00;;;;;;6308015;22;20003;-73
2022/04/27 03:29:40;;;;;;;19.73;7.95;;;18.80;98.10;;;;;;6282422;22;20034;-74
2022/04/27 03:32:10;;;;;;;19.25;6.82;;;18.80;98.10;;;;;;6307737;22;20393;-74
2022/04/27 03:34:37;;;;;;;18.80;7.85;;;18.70;98.10;;;;;;6335392;22;20014;-74
2022/04/27 03:37:04;;;;;;;15.23;6.63;;;18.70;98.10;;;;;;6308435;22;20026;-73
2022/04/27 03:39:31;;;;;;;19.10;7.10;;;18.70;98.10;;;;;;6337099;22;20018;-73
2022/04/27 03:41:59;;;;;;;23.15;8.43;;;18.70;98.10;;;;;;6337340;22;20325;-73
2022/04/27 03:44:26;;;;;;;18.02;8.15;;;18.70;98.10;;;;;;6309029;22;20007;-73
2022/04/27 03:46:53;;;;;;;14.00;7.32;;;18.70;98.10;;;;;;6337113;22;20001;-73
2022/04/27 03:49:20;;;;;;;15.20;6.93;;;18.80;98.20;;;;;;6337496;22;20025;-73
2022/04/27 03:51:47;;;;;;;17.88;7.55;;;18.70;98.20;;;;;;6309676;22;20002;-73
2022/04/27 03:54:14;;;;;;;16.75;7.55;;;18.80;98.20;;;;;;6337300;22;20007;-73
2022/04/27 03:56:41;;;;;;;16.65;7.90;;;18.80;98.20;;;;;;6310104;22;19999;-73
2022/04/27 03:59:09;;;;;;;15.43;7.43;;;18.80;98.20;;;;;;6309973;22;20030;-73
2022/04/27 04:01:36;;;;;;;16.90;7.43;;;18.80;98.20;;;;;;6284627;22;20009;-75
2022/04/27 04:04:03;;;;;;;14.35;6.70;;;18.80;98.20;;;;;;6337100;22;19995;-74
2022/04/27 04:06:30;;;;;;;14.70;6.97;;;18.80;98.30;;;;;;6337523;22;19999;-74
2022/04/27 04:08:57;;;;;;;15.70;7.35;;;18.80;98.30;;;;;;6337750;22;20007;-74
2022/04/27 04:11:24;;;;;;;14.38;7.80;;;18.80;98.30;;;;;;6337324;22;19998;-73
2022/04/27 04:13:51;;;;;;;19.63;7.78;;;18.80;98.30;;;;;;6284412;22;20274;-73
2022/04/27 04:16:18;;;;;;;17.83;7.78;;;18.80;98.30;;;;;;6337556;22;19995;-73
2022/04/27 04:18:46;;;;;;;16.13;7.18;;;18.80;98.30;;;;;;6337291;22;20070;-73
2022/04/27 04:21:13;;;;;;;15.30;7.68;;;18.70;98.30;;;;;;6309671;22;20007;-73
2022/04/27 04:23:40;;;;;;;17.35;8.13;;;18.80;98.40;;;;;;6337347;22;20389;-73
2022/04/27 04:28:52;;;;;;;18.23;7.88;;;18.80;98.40;;;;;;6314213;22;20068;-73
2022/04/27 04:31:19;;;;;;;22.10;8.15;;;18.80;98.40;;;;;;6337459;22;20513;-73
2022/04/27 04:33:46;;;;;;;19.52;9.68;;;18.80;98.40;;;;;;6336610;22;20090;-73
2022/04/27 04:36:13;;;;;;;26.58;9.02;;;18.80;98.40;;;;;;6336904;22;20022;-73
2022/04/27 04:38:41;;;;;;;18.73;8.68;;;18.80;98.40;;;;;;6337018;22;20064;-73
2022/04/27 04:41:08;;;;;;;21.13;9.57;;;18.80;98.40;;;;;;6309552;22;20210;-73
2022/04/27 04:43:35;;;;;;;22.08;8.55;;;18.70;98.40;;;;;;6336746;22;20082;-74
2022/04/27 04:46:02;;;;;;;20.48;8.43;;;18.80;98.40;;;;;;6336931;22;19999;-73
2022/04/27 04:48:29;;;;;;;19.67;8.27;;;18.80;98.50;;;;;;6336718;22;20079;-74
2022/04/27 04:50:56;;;;;;;24.20;8.77;;;18.80;98.50;;;;;;6336616;22;19998;-74
2022/04/27 04:53:24;;;;;;;22.50;10.43;;;18.80;98.50;;;;;;6336605;22;20048;-73
2022/04/27 04:55:51;;;;;;;22.33;9.77;;;18.80;98.50;;;;;;6336668;22;20426;-74
2022/04/27 04:58:18;;;;;;;21.67;9.30;;;18.80;98.50;;;;;;6309802;22;20021;-73
2022/04/27 05:00:48;;;;;;;30.05;13.40;;;18.80;98.50;;;;;;6337084;22;20431;-73
2022/04/27 05:03:16;;;;;;;32.08;14.80;;;18.80;98.50;;;;;;6308830;22;20010;-74
2022/04/27 05:05:44;;;;;;;29.40;14.75;;;18.80;98.50;;;;;;6336436;22;20333;-74
2022/04/27 05:08:11;;;;;;;30.15;12.65;;;18.80;98.50;;;;;;6309269;22;20452;-73
2022/04/27 05:10:39;;;;;;;22.58;11.63;;;18.80;98.50;;;;;;6309393;22;20009;-74
2022/04/27 05:13:06;;;;;;;25.27;10.73;;;18.80;98.60;;;;;;6336874;22;20006;-74
2022/04/27 05:15:33;;;;;;;19.80;9.40;;;18.80;98.60;;;;;;6336800;22;20395;-74
2022/04/27 05:18:00;;;;;;;21.85;8.75;;;18.80;98.50;;;;;;6336759;22;20025;-74
2022/04/27 05:20:27;;;;;;;21.83;8.85;;;18.80;98.60;;;;;;6309413;22;20003;-74
2022/04/27 05:22:54;;;;;;;22.15;9.15;;;18.80;98.60;;;;;;6309352;22;20436;-74
2022/04/27 05:25:21;;;;;;;22.48;9.50;;;18.80;98.60;;;;;;6309877;22;20374;-73
2022/04/27 05:27:49;;;;;;;19.20;8.63;;;18.80;98.60;;;;;;6336540;22;20037;-74
2022/04/27 05:33:01;;;;;;;26.83;8.85;;;18.80;98.60;;;;;;6336773;22;20067;-74
2022/04/27 05:35:28;;;;;;;20.08;9.30;;;18.80;98.60;;;;;;6336420;22;20022;-74
2022/04/27 05:37:55;;;;;;;29.55;9.15;;;18.80;98.60;;;;;;6283217;22;20022;-74
2022/04/27 05:40:25;;;;;;;27.25;9.15;;;18.80;98.60;;;;;;6336451;22;20388;-74
2022/04/27 05:42:52;;;;;;;26.63;9.43;;;18.80;98.60;;;;;;6336478;22;20434;-73
2022/04/27 05:45:19;;;;;;;24.10;8.80;;;18.70;98.60;;;;;;6336327;22;19998;-74
2022/04/27 05:47:46;;;;;;;22.90;8.80;;;18.80;98.60;;;;;;6309421;22;20003;-74
2022/04/27 05:50:14;;;;;;;24.65;9.05;;;18.80;98.60;;;;;;6336403;22;20445;-74
2022/04/27 05:52:54;;;;;;;22.40;8.55;;;18.70;98.60;;;;;;6336521;22;20082;-74
2022/04/27 05:55:21;;;;;;;;;;;18.80;98.60;;;;;;6337176;22;20346;-74
2022/04/27 05:57:48;;;;;;;20.48;9.25;;;18.70;98.60;;;;;;6309187;22;19974;-74
2022/04/27 06:00:15;;;;;;;19.10;8.25;;;18.70;98.60;;;;;;6282591;22;20006;-74
2022/04/27 06:02:43;;;;;;;19.25;8.02;;;18.70;98.60;;;;;;6283157;22;20417;-74
2022/04/27 06:05:11;;;;;;;15.82;7.72;;;18.70;98.60;;;;;;6257999;22;20426;-74
2022/04/27 06:07:38;;;;;;;20.88;8.23;;;18.70;98.60;;;;;;6309405;22;19994;-74
2022/04/27 06:10:06;;;;;;;19.40;7.63;;;18.70;98.60;;;;;;6308887;22;19999;-74
2022/04/27 06:12:43;;;;;;;16.25;7.13;;;18.70;98.70;;;;;;6336495;22;19995;-75
2022/04/27 06:15:14;;;;;;;20.83;8.38;;;18.70;98.70;;;;;;6311165;22;20048;-74
2022/04/27 06:17:41;;;;;;;25.25;8.98;;;18.70;98.70;;;;;;6335990;22;20049;-74
2022/04/27 06:20:09;;;;;;;22.50;9.73;;;18.70;98.70;;;;;;6336536;22;20311;-74
2022/04/27 06:22:36;;;;;;;27.00;9.40;;;18.70;98.70;;;;;;6336261;22;20026;-74
2022/04/27 06:25:07;;;;;;;23.10;9.25;;;18.70;98.70;;;;;;6308887;22;20091;-74
2022/04/27 06:27:35;;;;;;;29.67;10.10;;;18.70;98.70;;;;;;6283065;22;20026;-74
2022/04/27 06:30:02;;;;;;;28.60;10.15;;;18.70;98.70;;;;;;6309102;22;20061;-74
2022/04/27 06:32:32;;;;;;;28.63;9.75;;;18.70;98.70;;;;;;6309329;22;20003;-74
2022/04/27 06:35:00;;;;;;;28.10;9.93;;;18.70;98.70;;;;;;6309090;22;20431;-73
2022/04/27 06:37:27;;;;;;;25.95;10.35;;;18.70;98.70;;;;;;6336455;22;20345;-73
2022/04/27 06:39:55;;;;;;;26.52;10.10;;;18.70;98.70;;;;;;6308656;22;20011;-74
2022/04/27 06:42:22;;;;;;;28.55;10.05;;;18.70;98.70;;;;;;6336329;22;20471;-73
2022/04/27 06:44:50;;;;;;;28.45;9.88;;;18.70;98.70;;;;;;6308971;22;20038;-74
2022/04/27 06:47:17;;;;;;;25.10;10.10;;;18.70;98.70;;;;;;6309289;22;20007;-73
2022/04/27 06:49:44;;;;;;;31.05;10.88;;;18.70;98.80;;;;;;6335992;22;19998;-73
2022/04/27 06:52:11;;;;;;;27.33;11.40;;;18.70;98.80;;;;;;6308397;22;20002;-73
2022/04/27 06:54:38;;;;;;;35.50;11.13;;;18.70;98.70;;;;;;6308295;22;20014;-74
2022/04/27 06:57:05;;;;;;;32.10;11.35;;;18.70;98.80;;;;;;6335315;22;20037;-73
2022/04/27 06:59:33;;;;;;;28.52;11.70;;;18.70;98.80;;;;;;6308199;22;20003;-73
2022/04/27 07:02:00;;;;;;;30.98;11.80;;;18.70;98.70;;;;;;6308211;22;19999;-72
2022/04/27 07:04:27;;;;;;;31.52;11.82;;;18.70;98.70;;;;;;6308328;22;19998;-71
2022/04/27 07:06:54;;;;;;;32.70;12.10;;;18.60;98.70;;;;;;6282625;22;19999;-72
2022/04/27 07:09:22;;;;;;;30.30;12.30;;;18.60;98.70;;;;;;6307743;22;20017;-71
2022/04/27 07:11:49;;;;;;;26.50;11.30;;;18.60;98.80;;;;;;6307840;22;20655;-72
2022/04/27 07:14:16;;;;;;;40.20;13.07;;;18.60;98.70;;;;;;6308592;22;20014;-72
2022/04/27 07:16:47;;;;;;;28.08;11.75;;;18.60;98.70;;;;;;6308632;22;19999;-73
2022/04/27 07:19:14;;;;;;;29.05;12.20;;;18.60;98.70;;;;;;6335828;22;20515;-72
2022/04/27 07:21:41;;;;;;;31.05;11.70;;;18.60;98.70;;;;;;6335739;22;20006;-72
2022/04/27 07:24:08;;;;;;;24.00;11.20;;;18.50;98.70;;;;;;6307015;22;20326;-73
2022/04/27 07:26:35;;;;;;;26.27;11.45;;;18.50;98.70;;;;;;6280283;22;20027;-73
2022/04/27 07:29:03;;;;;;;32.67;12.20;;;18.50;98.70;;;;;;6305404;22;20044;-73
2022/04/27 07:31:32;;;;;;;31.90;11.75;;;18.50;98.70;;;;;;6306603;22;20003;-72
2022/04/27 07:33:59;;;;;;;30.70;12.50;;;18.50;98.70;;;;;;6281504;22;20349;-73
2022/04/27 07:36:26;;;;;;;28.58;11.48;;;18.50;98.70;;;;;;6307030;22;19999;-73
2022/04/27 07:38:53;;;;;;;33.83;12.68;;;18.50;98.80;;;;;;6333281;22;20011;-73
2022/04/27 07:41:20;;;;;;;30.27;12.25;;;18.50;98.70;;;;;;6334190;22;20487;-73
2022/04/27 07:43:47;;;;;;;41.28;13.00;;;18.50;98.70;;;;;;6308156;22;20003;-74
2022/04/27 07:46:15;;;;;;;32.67;12.32;;;18.50;98.70;;;;;;6335097;22;19999;-74
2022/04/27 07:48:42;;;;;;;27.23;11.88;;;18.50;98.70;;;;;;6334304;22;20421;-74
2022/04/27 07:51:09;;;;;;;33.35;13.05;;;18.50;98.70;;;;;;6332911;22;20575;-71
2022/04/27 07:53:36;;;;;;;35.72;12.88;;;18.50;98.70;;;;;;6332691;22;20006;-74
2022/04/27 07:56:05;;;;;;;30.02;12.63;;;18.50;98.70;;;;;;6334585;22;20011;-74
2022/04/27 07:58:32;;;;;;;35.30;14.27;;;18.40;98.70;;;;;;6306603;22;20102;-74
2022/04/27 08:01:00;;;;;;;30.45;14.02;;;18.40;98.70;;;;;;6331809;22;20128;-74
2022/04/27 08:03:27;;;;;;;36.22;15.35;;;18.40;98.70;;;;;;6332203;22;20002;-72
2022/04/27 08:05:54;;;;;;;35.88;14.18;;;18.40;98.70;;;;;;6333281;22;20007;-73
2022/04/27 08:08:21;;;;;;;33.40;13.88;;;18.50;98.70;;;;;;6305715;22;19999;-73
2022/04/27 08:10:49;;;;;;;29.50;13.77;;;18.40;98.70;;;;;;6281204;22;20112;-73
2022/04/27 08:13:16;;;;;;;35.05;13.68;;;18.40;98.70;;;;;;6306697;22;20003;-71
2022/04/27 08:15:44;;;;;;;29.65;12.80;;;18.40;98.70;;;;;;6334025;22;20007;-73
2022/04/27 08:18:11;;;;;;;52.40;15.82;;;18.40;98.70;;;;;;6306995;22;20075;-72
2022/04/27 08:23:32;;;;;;;39.22;13.65;;;18.40;98.70;;;;;;6288828;22;20010;-72
2022/04/27 08:26:01;;;;;;;42.03;15.80;;;18.40;98.70;;;;;;6336132;22;20002;-72
2022/04/27 08:28:29;;;;;;;38.33;15.83;;;18.40;98.70;;;;;;6309156;22;20001;-73
2022/04/27 08:30:56;;;;;;;46.75;15.10;;;18.40;98.70;;;;;;6307959;22;20353;-73
2022/04/27 08:33:23;;;;;;;46.67;15.63;;;18.40;98.70;;;;;;6281599;22;20090;-72
2022/04/27 08:35:50;;;;;;;42.10;14.93;;;18.40;98.70;;;;;;6281526;22;20059;-73
2022/04/27 08:38:17;;;;;;;43.28;14.98;;;18.40;98.70;;;;;;6308866;22;20017;-75
2022/04/27 08:40:46;;;;;;;43.55;14.30;;;18.40;98.70;;;;;;6336412;22;20007;-74
2022/04/27 08:43:13;;;;;;;40.50;14.30;;;18.40;98.70;;;;;;6307672;22;20010;-73
2022/04/27 08:45:42;;;;;;;44.72;14.55;;;18.40;98.70;;;;;;6334595;22;20090;-72
2022/04/27 10:52:45;;;;;;;28.60;13.30;;;18.30;98.70;;;;;;6331835;22;20030;-74
2022/04/27 10:55:33;;;;;;;31.02;13.98;;;18.30;98.70;;;;;;6307415;22;20094;-73
2022/04/27 10:58:22;;;;;;;31.75;13.25;;;18.30;98.70;;;;;;6334164;22;20002;-77
2022/04/27 11:01:01;;;;;;;34.53;12.85;;;18.40;98.70;;;;;;6307427;22;20425;-76
2022/04/27 11:03:35;;;;;;;36.58;13.48;;;18.30;98.70;;;;;;6306537;22;20429;-75
2022/04/27 11:06:04;;;;;;;43.28;14.32;;;18.40;98.70;;;;;;6332994;22;20337;-75
2022/04/27 11:08:36;;;;;;;40.70;13.77;;;18.30;98.70;;;;;;6305470;22;20021;-75
2022/04/27 11:11:08;;;;;;;32.35;14.95;;;18.40;98.70;;;;;;6334211;22;20325;-77
2022/04/27 11:13:38;;;;;;;34.05;13.20;;;18.40;98.70;;;;;;6281133;22;20010;-77
2022/04/27 11:16:10;;;;;;;30.55;12.70;;;18.30;98.70;;;;;;6334247;22;20052;-77
2022/04/27 11:18:55;;;;;;;35.97;13.40;;;18.40;98.70;;;;;;6281597;22;19999;-76
2022/04/27 11:21:28;;;;;;;41.33;13.07;;;18.40;98.70;;;;;;6282008;22;20030;-73
2022/04/27 11:23:57;;;;;;;35.75;13.27;;;18.40;98.70;;;;;;6307307;22;20349;-75
2022/04/27 11:26:24;;;;;;;30.10;13.07;;;18.40;98.70;;;;;;6281732;22;19995;-75
2022/04/27 11:28:55;;;;;;;28.40;12.90;;;18.40;98.70;;;;;;6306776;22;20038;-74
2022/04/27 11:31:22;;;;;;;37.45;12.23;;;18.40;98.70;;;;;;6308145;22;20002;-78
2022/04/27 11:33:49;;;;;;;26.83;12.68;;;18.40;98.70;;;;;;6282128;22;20446;-75
2022/04/27 11:36:27;;;;;;;30.50;12.02;;;18.40;98.70;;;;;;6334254;22;20002;-75
2022/04/27 11:38:55;;;;;;;34.92;12.73;;;18.40;98.70;;;;;;6334532;22;20006;-74
2022/04/27 11:41:26;;;;;;;32.20;12.52;;;18.40;98.70;;;;;;6282723;22;20330;-73
2022/04/27 11:43:56;;;;;;;32.17;11.77;;;18.30;98.70;;;;;;6308590;22;20101;-73
2022/04/27 11:46:22;;;;;;;;;;;18.40;98.70;;;;;;6307909;22;20073;-74
2022/04/27 11:48:53;;;;;;;30.23;11.48;;;18.30;98.70;;;;;;6307527;22;19909;-74
2022/04/27 11:51:19;;;;;;;;;;;18.30;98.70;;;;;;6283773;22;20057;-74
2022/04/27 11:53:48;;;;;;;23.33;11.20;;;18.40;98.70;;;;;;6307544;22;20297;-75
2022/04/27 11:56:19;;;;;;;30.15;12.25;;;18.40;98.70;;;;;;6281059;22;20064;-74
2022/04/27 11:58:46;;;;;;;29.88;12.13;;;18.40;98.70;;;;;;6281922;22;20006;-73
2022/04/27 12:01:23;;;;;;;32.55;13.20;;;18.40;98.70;;;;;;6335442;22;19999;-74
2022/04/27 12:03:50;;;;;;;37.08;12.77;;;18.40;98.70;;;;;;6306732;22;19999;-74
2022/04/27 12:06:24;;;;;;;30.75;12.25;;;18.40;98.70;;;;;;6336198;22;20003;-73
2022/04/27 12:08:52;;;;;;;29.42;12.52;;;18.40;98.70;;;;;;6285290;22;19999;-74
2022/04/27 12:11:23;;;;;;;29.83;12.65;;;18.40;98.70;;;;;;6308926;22;20491;-76
2022/04/27 12:13:55;;;;;;;32.97;13.07;;;18.40;98.70;;;;;;6308311;22;20019;-75
2022/04/27 12:16:22;;;;;;;35.03;12.23;;;18.40;98.70;;;;;;6308525;22;20011;-75
2022/04/27 12:18:53;;;;;;;28.65;11.88;;;18.40;98.70;;;;;;6309241;22;20318;-76
2022/04/27 12:21:25;;;;;;;25.27;12.18;;;18.40;98.70;;;;;;6308926;22;20486;-75
2022/04/27 12:23:56;;;;;;;32.05;11.70;;;18.50;98.70;;;;;;6284906;22;20425;-75
2022/04/27 12:26:24;;;;;;;29.30;12.07;;;18.50;98.70;;;;;;6310274;22;20052;-75
2022/04/27 12:28:52;;;;;;;29.38;12.10;;;18.50;98.70;;;;;;6309534;22;20003;-75
2022/04/27 12:31:24;;;;;;;27.95;12.10;;;18.40;98.70;;;;;;6337155;22;20007;-75
2022/04/27 12:33:51;;;;;;;34.40;11.85;;;18.40;98.70;;;;;;6284943;22;19995;-75
2022/04/27 12:39:20;;;;;;;32.25;12.88;;;18.50;98.70;;;;;;6313570;22;20009;-77
2022/04/27 12:41:49;;;;;;;32.28;12.85;;;18.40;98.70;;;;;;6310074;22;20011;-76
2022/04/27 12:44:18;;;;;;;32.50;12.38;;;18.40;98.70;;;;;;6335452;22;20073;-77
2022/04/27 12:47:04;;;;;;;35.08;13.88;;;18.40;98.70;;;;;;6308731;22;20413;-76
2022/04/27 12:49:35;;;;;;;32.22;13.20;;;18.40;98.70;;;;;;6336731;22;20007;-77
2022/04/27 12:52:33;;;;;;;34.50;14.18;;;18.40;98.70;;;;;;6283747;22;20446;-77
2022/04/27 12:55:04;;;;;;;31.55;13.15;;;18.40;98.70;;;;;;6335433;22;20507;-76
2022/04/27 12:57:50;;;;;;;41.42;12.73;;;18.50;98.70;;;;;;6283432;22;20077;-76
2022/04/27 13:00:19;;;;;;;28.85;12.48;;;18.40;98.70;;;;;;6309441;22;20078;-77
2022/04/27 13:02:46;;;;;;;30.08;12.75;;;18.40;98.70;;;;;;6309178;22;20005;-76
2022/04/27 13:05:13;;;;;;;28.52;12.77;;;18.40;98.70;;;;;;6334886;22;20173;-76
2022/04/27 13:07:40;;;;;;;35.10;12.85;;;18.40;98.70;;;;;;6283641;22;20440;-77
2022/04/27 13:12:53;;;;;;;30.25;12.60;;;18.40;98.70;;;;;;6312319;22;20747;-76
2022/04/27 13:15:21;;;;;;;29.10;12.40;;;18.40;98.70;;;;;;6309205;22;20099;-76
2022/04/27 13:17:50;;;;;;;29.52;12.00;;;18.30;98.60;;;;;;6308944;22;20057;-76
2022/04/27 13:20:17;;;;;;;31.42;12.13;;;18.30;98.60;;;;;;6309749;22;20003;-76
2022/04/27 13:22:45;;;;;;;23.60;12.10;;;18.30;98.60;;;;;;6308306;22;19999;-77
2022/04/27 13:25:12;;;;;;;23.85;11.95;;;18.30;98.60;;;;;;6335785;22;19995;-77
2022/04/27 13:27:41;;;;;;;24.05;11.70;;;18.30;98.60;;;;;;6336352;22;20093;-77
2022/04/27 13:30:09;;;;;;;23.60;11.93;;;18.30;98.60;;;;;;6309108;22;19995;-76
2022/04/27 13:32:37;;;;;;;24.88;11.55;;;18.30;98.60;;;;;;6308108;22;20029;-76
2022/04/27 13:35:05;;;;;;;29.77;11.32;;;18.30;98.60;;;;;;6335225;22;20011;-76
2022/04/27 13:37:32;;;;;;;23.48;10.88;;;18.30;98.60;;;;;;6336113;22;19999;-77
2022/04/27 13:39:59;;;;;;;16.55;10.73;;;18.20;98.60;;;;;;6336317;22;20003;-77
2022/04/27 13:42:26;;;;;;;24.08;10.30;;;18.20;98.60;;;;;;6335636;22;20044;-77
2022/04/27 13:44:54;;;;;;;20.63;10.18;;;18.20;98.60;;;;;;6335557;22;20367;-76
2022/04/27 13:47:23;;;;;;;21.42;10.70;;;18.20;98.60;;;;;;6334756;22;20491;-76
2022/04/27 13:49:50;;;;;;;21.67;10.23;;;18.20;98.60;;;;;;6335610;22;20045;-76
2022/04/27 13:52:17;;;;;;;19.77;10.20;;;18.20;98.60;;;;;;6307806;22;20338;-76
2022/04/27 13:54:44;;;;;;;20.90;10.40;;;18.20;98.60;;;;;;6282573;22;20311;-76
2022/04/27 13:57:11;;;;;;;16.75;9.85;;;18.20;98.60;;;;;;6335704;22;20002;-77
2022/04/27 13:59:38;;;;;;;22.95;10.27;;;18.20;98.50;;;;;;6336740;22;20033;-76
2022/04/27 14:02:08;;;;;;;19.85;11.02;;;18.20;98.50;;;;;;6308039;22;19999;-76
2022/04/27 14:04:35;;;;;;;19.58;10.27;;;18.20;98.50;;;;;;6309338;22;20002;-77
2022/04/27 14:07:02;;;;;;;24.05;10.45;;;18.20;98.50;;;;;;6335819;22;20458;-77
2022/04/27 14:09:29;;;;;;;25.05;10.05;;;18.10;98.50;;;;;;6336009;22;20003;-77
2022/04/27 14:14:41;;;;;;;19.45;10.82;;;18.10;98.50;;;;;;6335647;22;20025;-77
2022/04/27 14:19:54;;;;;;;22.70;11.13;;;18.10;98.50;;;;;;6312215;22;20045;-77
2022/04/27 14:22:22;;;;;;;26.20;12.18;;;18.10;98.50;;;;;;6335282;22;20014;-77
2022/04/27 14:24:49;;;;;;;23.02;11.32;;;18.10;98.50;;;;;;6335398;22;20003;-77
2022/04/27 14:27:16;;;;;;;21.92;11.40;;;18.10;98.50;;;;;;6336434;22;20041;-77
2022/04/27 14:29:44;;;;;;;21.42;11.35;;;18.10;98.50;;;;;;6335190;22;20018;-77
2022/04/27 14:32:11;;;;;;;23.48;12.05;;;18.00;98.40;;;;;;6334517;22;19998;-77
2022/04/27 14:34:38;;;;;;;27.77;12.57;;;18.00;98.40;;;;;;6281533;22;20037;-77
2022/04/27 14:37:05;;;;;;;26.30;12.32;;;18.00;98.50;;;;;;6282571;22;20050;-77
2022/04/27 14:39:33;;;;;;;23.88;12.13;;;18.00;98.40;;;;;;6334984;22;20452;-77
2022/04/27 14:42:00;;;;;;;23.55;11.48;;;18.00;98.30;;;;;;6335507;22;20417;-76
2022/04/27 14:44:27;;;;;;;27.23;12.63;;;18.00;98.30;;;;;;6335006;22;20009;-76
2022/04/27 14:46:56;;;;;;;23.75;11.73;;;18.00;98.40;;;;;;6334607;22;20002;-76
2022/04/27 14:49:23;;;;;;;25.13;12.50;;;17.90;98.30;;;;;;6335457;22;20053;-77
2022/04/27 14:51:50;;;;;;;27.35;13.88;;;17.90;98.40;;;;;;6307153;22;20054;-77
2022/04/27 14:54:17;;;;;;;25.98;13.23;;;18.00;98.40;;;;;;6307924;22;20007;-77
2022/04/27 14:56:44;;;;;;;25.48;13.15;;;17.90;98.30;;;;;;6335160;22;20329;-77
2022/04/27 14:59:12;;;;;;;37.97;15.43;;;17.90;98.30;;;;;;6335458;22;19998;-77
2022/04/27 15:01:39;;;;;;;31.42;15.38;;;17.90;98.30;;;;;;6307725;22;20075;-77
2022/04/27 15:04:06;;;;;;;29.30;13.82;;;17.90;98.30;;;;;;6308024;22;20009;-76
2022/04/27 15:06:34;;;;;;;31.80;14.52;;;17.90;98.30;;;;;;6307444;22;20003;-77
2022/04/27 15:09:01;;;;;;;32.15;14.50;;;17.90;98.30;;;;;;6335551;22;20002;-77